Time;durP1;ratioP1;P1;durP2;ratioP2;P2;SDS_P1;SDS_P2;PMS_P1;PMS_P2;Temp;Humidity;BMP_temperature;BMP_pressure;BME280_temperature;BME280_humidity;BME280_pressure;Samples;Min_cycle;Max_cycle;Signal;HPM_P1;HPM_P2
2022/08/01 00:02:16;;;;;;;4.55;4.15;;;;;;;22.68;68.08;100353.22;4995753;28;104796;-53
2022/08/01 00:04:43;;;;;;;4.50;4.10;;;;;;;22.67;68.05;100349.66;4995570;28;101945;-54
2022/08/01 00:07:13;;;;;;;5.10;4.60;;;;;;;22.67;67.68;100349.66;4995655;28;102291;-53
2022/08/01 00:09:41;;;;;;;4.82;4.43;;;;;;;22.67;68.02;100346.88;4994941;28;102267;-54
2022/08/01 00:12:08;;;;;;;4.80;4.40;;;;;;;22.67;67.59;100344.09;4981002;28;103986;-54
2022/08/01 00:14:34;;;;;;;4.47;4.07;;;;;;;22.67;67.71;100352.41;4977158;28;102394;-53
2022/08/01 00:17:01;;;;;;;4.63;4.22;;;;;;;22.66;68.02;100359.13;4993470;28;103149;-54
2022/08/01 00:19:28;;;;;;;4.70;4.30;;;;;;;22.67;67.88;100355.19;4986396;28;102194;-54
2022/08/01 00:21:56;;;;;;;4.40;4.00;;;;;;;22.67;67.94;100355.19;4976835;28;104291;-53
2022/08/01 00:24:23;;;;;;;4.90;4.30;;;;;;;22.67;67.88;100346.88;4978892;28;102962;-54
2022/08/01 00:26:49;;;;;;;5.07;4.57;;;;;;;22.67;67.95;100355.19;4982455;28;102164;-54
2022/08/01 00:29:16;;;;;;;4.53;4.13;;;;;;;22.67;67.81;100344.09;4996844;28;102094;-54
2022/08/01 00:31:43;;;;;;;4.43;4.07;;;;;;;22.67;68.04;100344.09;4996252;28;103837;-54
2022/08/01 00:34:09;;;;;;;4.20;3.88;;;;;;;22.68;68.11;100344.91;4994852;28;102103;-53
2022/08/01 00:36:36;;;;;;;4.47;4.13;;;;;;;22.67;67.92;100343.28;4993790;28;102145;-54
2022/08/01 00:39:04;;;;;;;4.60;4.20;;;;;;;22.66;68.03;100342.50;4996158;28;102212;-54
2022/08/01 00:41:31;;;;;;;4.72;4.32;;;;;;;22.66;67.94;100348.03;4992050;28;104070;-53
2022/08/01 00:44:01;;;;;;;4.55;4.18;;;;;;;22.66;68.09;100336.94;4990226;28;102437;-54
2022/08/01 00:46:28;;;;;;;4.53;4.13;;;;;;;22.65;68.04;100334.56;4995459;28;101945;-54
2022/08/01 00:48:54;;;;;;;4.35;3.95;;;;;;;22.66;68.00;100339.72;4990273;28;102161;-54
2022/08/01 00:51:22;;;;;;;4.60;4.20;;;;;;;22.66;68.15;100331.41;4994529;28;103987;-54
2022/08/01 00:53:49;;;;;;;4.28;3.95;;;;;;;22.66;68.12;100334.19;4996199;28;102273;-54
2022/08/01 00:56:18;;;;;;;4.68;4.28;;;;;;;22.65;67.85;100318.72;4996679;28;102090;-54
2022/08/01 00:58:44;;;;;;;;;;;;;;;22.65;68.09;100318.72;4985258;28;102187;-54
2022/08/01 01:01:11;;;;;;;4.75;4.30;;;;;;;22.65;67.87;100313.16;4981515;28;103972;-54
2022/08/01 01:03:37;;;;;;;4.07;3.67;;;;;;;22.66;68.06;100313.97;4994582;28;102004;-54
2022/08/01 01:06:14;;;;;;;4.85;4.35;;;;;;;22.65;68.09;100310.38;4995226;28;102612;-54
2022/08/01 01:08:46;;;;;;;4.82;4.43;;;;;;;22.64;68.11;100311.53;4996906;28;102120;-54
2022/08/01 01:11:21;;;;;;;4.95;4.07;;;;;;;22.65;68.16;100321.47;4994402;28;103841;-54
2022/08/01 01:13:53;;;;;;;5.28;4.57;;;;;;;22.65;68.05;100313.16;4978642;28;102493;-54
2022/08/01 01:16:22;;;;;;;4.57;4.20;;;;;;;22.66;67.94;100316.72;4983598;28;102226;-53
2022/08/01 01:18:52;;;;;;;4.35;4.03;;;;;;;22.65;68.05;100324.25;4984425;28;102272;-53
2022/08/01 01:21:40;;;;;;;5.72;4.30;;;;;;;22.64;67.54;100311.53;4995325;28;103822;-54
2022/08/01 01:24:17;;;;;;;4.68;4.28;;;;;;;22.66;68.06;100320.31;4995995;28;102257;-54
2022/08/01 01:26:52;;;;;;;4.70;4.30;;;;;;;22.64;68.03;100319.06;4989018;28;102536;-54
2022/08/01 01:29:25;;;;;;;4.20;3.90;;;;;;;22.64;67.93;100332.91;4984631;28;102177;-54
2022/08/01 01:31:57;;;;;;;4.40;4.10;;;;;;;22.65;67.94;100335.34;4983633;28;104195;-54
2022/08/01 01:34:27;;;;;;;4.45;4.15;;;;;;;22.64;68.07;100336.50;4968470;28;102017;-53
2022/08/01 01:36:56;;;;;;;4.90;4.50;;;;;;;22.64;68.21;100336.50;4961064;28;102404;-54
2022/08/01 01:39:25;;;;;;;4.32;4.03;;;;;;;22.65;68.09;100340.91;4959524;28;102224;-53
2022/08/01 01:41:54;;;;;;;4.55;4.15;;;;;;;22.65;67.94;100340.91;4969890;28;103964;-54
2022/08/01 01:44:23;;;;;;;4.75;4.22;;;;;;;22.65;68.05;100340.09;4974967;28;102725;-54
2022/08/01 01:46:52;;;;;;;4.40;4.00;;;;;;;22.64;68.13;100344.00;4975083;28;102149;-54
2022/08/01 01:49:22;;;;;;;4.43;4.13;;;;;;;22.65;68.24;100357.53;4965255;28;102290;-54
2022/08/01 01:51:51;;;;;;;4.43;4.03;;;;;;;22.65;68.08;100352.00;4975682;28;103945;-54
2022/08/01 01:54:18;;;;;;;4.50;4.10;;;;;;;22.64;68.14;100344.81;4979681;28;102177;-54
2022/08/01 01:56:51;;;;;;;4.15;3.85;;;;;;;22.64;68.08;100344.81;4960657;28;102289;-54
2022/08/01 01:59:20;;;;;;;4.15;3.85;;;;;;;22.64;68.09;100341.25;4968402;28;102419;-54
2022/08/01 02:01:51;;;;;;;4.45;4.05;;;;;;;22.64;68.15;100349.56;4961483;28;104070;-54
2022/08/01 02:04:21;;;;;;;4.57;4.18;;;;;;;22.66;68.09;100350.03;4965929;28;102448;-54
2022/08/01 02:06:51;;;;;;;4.50;4.10;;;;;;;22.64;68.32;100352.34;4956076;28;102372;-54
2022/08/01 02:09:20;;;;;;;4.10;3.80;;;;;;;22.64;67.93;100349.56;4971943;28;102545;-54
2022/08/01 02:11:48;;;;;;;4.13;3.72;;;;;;;22.63;68.17;100346.00;4975081;28;104109;-54
2022/08/01 02:14:17;;;;;;;4.07;3.78;;;;;;;22.64;68.12;100344.00;4968094;28;103065;-53
2022/08/01 02:16:47;;;;;;;4.38;3.97;;;;;;;22.63;68.13;100337.66;4973369;28;102403;-54
2022/08/01 02:19:17;;;;;;;4.60;4.20;;;;;;;22.64;68.19;100347.59;4971432;28;102166;-54
2022/08/01 02:21:48;;;;;;;4.10;3.80;;;;;;;22.63;68.18;100343.22;4961012;28;103910;-54
2022/08/01 02:24:24;;;;;;;4.22;3.92;;;;;;;22.63;68.27;100343.22;4972804;28;102332;-54
2022/08/01 02:26:54;;;;;;;4.22;3.90;;;;;;;22.62;68.04;100347.16;4959454;28;102108;-54
2022/08/01 02:29:26;;;;;;;5.43;3.80;;;;;;;22.62;67.95;100347.16;4962878;28;102427;-54
2022/08/01 02:31:54;;;;;;;4.53;4.10;;;;;;;22.63;68.07;100353.50;4967116;28;103942;-54
2022/08/01 02:34:25;;;;;;;4.20;3.85;;;;;;;22.63;67.82;100354.31;4979148;28;102481;-54
2022/08/01 02:36:54;;;;;;;4.55;3.70;;;;;;;22.63;68.11;100357.09;4978088;28;101938;-53
2022/08/01 02:39:23;;;;;;;4.20;3.90;;;;;;;22.63;68.17;100359.06;4973967;28;102116;-54
2022/08/01 02:41:54;;;;;;;;;;;;;;;22.63;68.18;100354.31;4959329;28;103906;-54
2022/08/01 02:44:24;;;;;;;4.13;3.83;;;;;;;22.62;68.15;100351.91;4960708;28;102156;-54
2022/08/01 02:46:55;;;;;;;4.47;4.07;;;;;;;22.63;68.11;100365.41;4959240;28;102225;-54
2022/08/01 02:49:25;;;;;;;4.30;3.80;;;;;;;22.62;68.07;100361.03;4973656;28;102709;-53
2022/08/01 02:51:55;;;;;;;4.68;4.28;;;;;;;22.63;68.22;100354.31;4978262;28;103878;-54
2022/08/01 02:54:24;;;;;;;6.97;3.30;;;;;;;22.62;68.21;100347.16;4978488;28;102310;-54
2022/08/01 02:56:53;;;;;;;4.30;4.00;;;;;;;22.61;68.39;100345.56;4972688;28;103458;-54
2022/08/01 02:59:26;;;;;;;4.35;3.95;;;;;;;22.61;68.19;100342.78;4978998;28;102770;-54
2022/08/01 03:01:55;;;;;;;4.40;4.10;;;;;;;22.61;68.31;100334.47;4977913;28;103894;-53
2022/08/01 03:04:24;;;;;;;4.22;3.85;;;;;;;22.61;68.14;100319.78;4971793;28;102285;-54
2022/08/01 03:06:52;;;;;;;4.03;3.72;;;;;;;22.61;68.27;100311.44;4961349;28;102161;-53
2022/08/01 03:09:20;;;;;;;4.50;4.13;;;;;;;22.60;68.17;100310.66;4975986;28;102591;-54
2022/08/01 03:11:49;;;;;;;4.17;3.77;;;;;;;22.61;68.17;100309.50;4958068;28;103987;-54
2022/08/01 03:14:16;;;;;;;;;;;;;;;22.60;68.05;100294.00;4970211;28;102685;-54
2022/08/01 03:16:46;;;;;;;4.50;4.10;;;;;;;22.60;68.29;100285.69;4958786;28;102357;-54
2022/08/01 03:19:13;;;;;;;4.03;3.72;;;;;;;22.59;68.29;100284.09;4968598;28;102551;-54
2022/08/01 03:21:43;;;;;;;5.23;4.10;;;;;;;22.59;68.17;100286.06;4959244;28;104218;-54
2022/08/01 03:24:11;;;;;;;4.88;4.03;;;;;;;22.60;68.34;100293.22;4977474;28;102015;-54
2022/08/01 03:26:39;;;;;;;4.33;4.03;;;;;;;22.60;68.54;100288.47;4971047;28;102001;-54
2022/08/01 03:29:16;;;;;;;5.33;4.17;;;;;;;22.59;68.35;100289.63;4973826;28;102531;-53
2022/08/01 03:31:45;;;;;;;4.15;3.85;;;;;;;22.60;68.42;100291.25;4961885;28;104150;-54
2022/08/01 03:34:12;;;;;;;4.35;4.05;;;;;;;22.60;68.34;100276.56;4969867;28;102020;-54
2022/08/01 03:36:46;;;;;;;4.43;4.03;;;;;;;22.58;68.18;100276.94;4977169;28;101925;-54
2022/08/01 03:39:14;;;;;;;3.78;3.47;;;;;;;22.59;68.43;100275.78;4968063;28;102352;-54
2022/08/01 03:41:46;;;;;;;4.10;3.80;;;;;;;22.59;68.16;100278.53;4958836;28;103958;-54
2022/08/01 03:44:15;;;;;;;5.22;3.88;;;;;;;22.59;68.71;100280.53;4969070;28;102104;-54
2022/08/01 03:46:46;;;;;;;4.40;4.10;;;;;;;22.59;68.38;100275.78;4977090;28;102459;-54
2022/08/01 03:49:18;;;;;;;4.20;3.90;;;;;;;22.60;68.46;100276.56;4977857;28;102355;-54
2022/08/01 03:51:49;;;;;;;5.13;4.63;;;;;;;22.59;68.25;100274.97;4976750;28;103959;-53
2022/08/01 03:54:19;;;;;;;5.30;3.58;;;;;;;22.59;68.34;100270.22;4973809;28;102053;-54
2022/08/01 03:56:48;;;;;;;3.90;3.60;;;;;;;22.59;68.39;100270.22;4958424;28;101935;-54
2022/08/01 03:59:15;;;;;;;5.18;3.88;;;;;;;22.60;68.48;100266.28;4961777;28;102514;-54
2022/08/01 04:01:44;;;;;;;4.20;3.90;;;;;;;22.58;68.36;100263.09;4962406;28;103875;-54
2022/08/01 04:04:10;;;;;;;4.45;4.05;;;;;;;22.58;68.51;100263.09;4966295;28;102494;-53
2022/08/01 04:06:38;;;;;;;4.68;4.20;;;;;;;22.59;68.38;100263.88;4976934;28;102354;-53
2022/08/01 04:09:09;;;;;;;4.28;3.92;;;;;;;22.57;68.40;100255.09;4961719;28;102112;-53
2022/08/01 04:11:36;;;;;;;4.30;4.00;;;;;;;22.58;68.39;100257.53;4963808;28;104041;-53
2022/08/01 04:14:03;;;;;;;4.05;3.75;;;;;;;22.58;68.13;100254.75;4976551;28;102709;-54
2022/08/01 04:16:30;;;;;;;3.60;3.28;;;;;;;22.57;68.45;100255.91;4958194;28;101940;-54
2022/08/01 04:18:56;;;;;;;3.85;3.55;;;;;;;22.57;68.28;100246.78;4973303;28;104411;-54
2022/08/01 04:21:27;;;;;;;4.20;3.80;;;;;;;22.56;68.33;100243.22;4976881;28;104206;-54
2022/08/01 04:23:55;;;;;;;4.30;4.00;;;;;;;22.56;68.43;100246.00;4976674;28;103331;-54
2022/08/01 04:26:25;;;;;;;4.40;4.10;;;;;;;22.55;68.35;100242.41;4962322;28;102531;-54
2022/08/01 04:28:54;;;;;;;4.10;3.80;;;;;;;22.56;68.25;100237.66;4966108;28;103270;-54
2022/08/01 04:31:25;;;;;;;4.22;3.90;;;;;;;22.56;68.33;100234.91;4971267;28;103856;-54
2022/08/01 04:33:54;;;;;;;3.95;3.65;;;;;;;22.55;68.29;100224.97;4974275;28;102094;-54
2022/08/01 04:36:23;;;;;;;4.05;3.67;;;;;;;22.56;68.16;100232.13;4963556;28;102455;-54
2022/08/01 04:38:55;;;;;;;4.32;4.03;;;;;;;22.55;68.29;100238.84;4977713;28;102454;-54
2022/08/01 04:41:24;;;;;;;4.38;3.97;;;;;;;22.57;68.46;100238.47;4972863;28;103916;-54
2022/08/01 04:43:52;;;;;;;4.38;3.78;;;;;;;22.56;68.52;100232.13;4968402;28;102286;-53
2022/08/01 04:46:19;;;;;;;4.40;4.00;;;;;;;22.57;68.10;100242.03;4976464;28;102355;-54
2022/08/01 04:48:45;;;;;;;4.10;3.80;;;;;;;22.57;68.39;100241.25;4977629;28;102692;-54
2022/08/01 04:51:14;;;;;;;4.07;3.70;;;;;;;22.56;68.59;100234.91;4975317;28;103961;-54
2022/08/01 04:53:42;;;;;;;4.50;4.10;;;;;;;22.57;68.17;100238.47;4967054;28;102049;-54
2022/08/01 04:56:08;;;;;;;4.65;3.45;;;;;;;22.58;68.35;100234.56;4967301;28;102243;-54
2022/08/01 04:58:36;;;;;;;4.35;3.97;;;;;;;22.57;68.11;100239.28;4968154;28;102134;-54
2022/08/01 05:01:03;;;;;;;4.30;3.90;;;;;;;22.58;68.33;100254.75;4975914;28;104098;-54
2022/08/01 05:03:29;;;;;;;4.22;3.85;;;;;;;22.59;67.94;100270.22;4966437;28;102295;-54
2022/08/01 05:05:55;;;;;;;4.55;4.15;;;;;;;22.60;68.45;100273.81;4974536;28;102944;-54
2022/08/01 05:08:22;;;;;;;4.97;4.47;;;;;;;22.58;68.26;100274.19;4977353;28;102174;-54
2022/08/01 05:10:48;;;;;;;3.85;3.55;;;;;;;22.58;68.25;100268.63;4975303;28;103905;-54
2022/08/01 05:13:15;;;;;;;4.15;3.85;;;;;;;22.59;68.28;100286.88;4976910;28;101897;-54
2022/08/01 05:15:43;;;;;;;4.10;3.80;;;;;;;22.59;68.32;100278.53;4967431;28;102200;-54
2022/08/01 05:18:10;;;;;;;4.43;4.13;;;;;;;22.58;68.48;100279.72;4961483;28;102215;-53
2022/08/01 05:20:37;;;;;;;4.38;3.97;;;;;;;22.59;68.32;100280.53;4966627;28;103935;-54
2022/08/01 05:23:03;;;;;;;4.25;3.88;;;;;;;22.57;68.36;100291.97;4976743;28;102134;-54
2022/08/01 05:25:31;;;;;;;3.95;3.65;;;;;;;22.58;68.27;100301.91;4968364;28;102202;-54
2022/08/01 05:27:58;;;;;;;4.35;3.97;;;;;;;22.56;68.19;100301.44;4976598;28;102388;-54
2022/08/01 05:30:24;;;;;;;4.10;3.80;;;;;;;22.58;68.35;100304.69;4974600;28;104153;-53
2022/08/01 05:32:52;;;;;;;4.50;4.13;;;;;;;22.56;68.16;100298.69;4957463;28;101942;-54
2022/08/01 05:35:19;;;;;;;5.70;4.30;;;;;;;22.57;68.28;100311.38;4956383;28;102436;-54
2022/08/01 05:37:45;;;;;;;4.43;4.00;;;;;;;22.56;68.61;100315.31;4957975;28;102546;-54
2022/08/01 05:40:12;;;;;;;4.43;3.78;;;;;;;22.58;68.35;100318.53;4961220;28;103995;-54
2022/08/01 05:42:39;;;;;;;4.50;4.10;;;;;;;22.56;68.36;100323.63;4975002;28;102470;-54
2022/08/01 05:45:06;;;;;;;4.47;4.07;;;;;;;22.55;68.18;100324.81;4992969;28;102297;-54
2022/08/01 05:47:33;;;;;;;4.67;3.87;;;;;;;22.57;68.28;100327.22;4992102;28;102147;-53
2022/08/01 05:50:01;;;;;;;5.13;4.18;;;;;;;22.55;68.31;100335.91;4984649;28;103946;-54
2022/08/01 05:52:28;;;;;;;5.10;4.57;;;;;;;22.55;68.38;100327.59;4999800;28;102023;-54
2022/08/01 05:54:55;;;;;;;4.68;4.28;;;;;;;22.57;67.99;100332.75;4996502;28;102193;-54
2022/08/01 05:57:21;;;;;;;4.30;3.90;;;;;;;22.56;68.39;100343.06;4995770;28;102252;-54
2022/08/01 05:59:48;;;;;;;4.88;3.92;;;;;;;22.54;68.23;100340.66;4979016;28;103919;-54
2022/08/01 06:02:14;;;;;;;4.50;4.10;;;;;;;22.55;68.63;100347.81;4988843;28;101935;-54
2022/08/01 06:04:41;;;;;;;4.10;3.70;;;;;;;22.55;68.49;100350.56;4993313;28;102393;-54
2022/08/01 06:07:09;;;;;;;3.97;3.67;;;;;;;22.55;68.54;100363.63;5000318;28;102279;-54
2022/08/01 06:09:36;;;;;;;4.18;3.88;;;;;;;22.55;68.31;100381.06;4990230;28;103959;-54
2022/08/01 06:12:03;;;;;;;4.30;3.90;;;;;;;22.55;68.37;100405.25;4983606;28;102310;-53
2022/08/01 06:14:30;;;;;;;4.35;3.95;;;;;;;22.54;68.75;100411.97;4994184;28;102420;-54
2022/08/01 06:16:56;;;;;;;4.65;4.18;;;;;;;22.54;68.38;100403.63;4989210;28;102465;-53
2022/08/01 06:19:23;;;;;;;4.63;4.10;;;;;;;22.53;68.61;100405.59;4983737;28;103926;-54
2022/08/01 06:21:49;;;;;;;5.05;4.65;;;;;;;22.52;68.14;100397.63;4996096;28;102462;-54
2022/08/01 06:24:17;;;;;;;4.90;4.40;;;;;;;22.53;68.62;100411.13;4984174;28;102051;-53
2022/08/01 06:26:43;;;;;;;7.13;4.80;;;;;;;22.53;68.39;100410.31;4992445;28;102092;-54
2022/08/01 06:29:10;;;;;;;5.05;4.45;;;;;;;22.53;68.45;100410.31;4987733;28;103902;-54
2022/08/01 06:31:37;;;;;;;4.95;4.50;;;;;;;22.54;68.57;100406.41;4991382;28;102275;-54
2022/08/01 06:34:03;;;;;;;5.40;4.90;;;;;;;22.54;68.61;100411.97;4978303;28;102111;-54
2022/08/01 06:36:30;;;;;;;4.75;4.35;;;;;;;22.55;68.39;100413.56;4982733;28;102226;-54
2022/08/01 06:38:56;;;;;;;4.78;4.38;;;;;;;22.54;68.48;100418.31;4998274;28;103832;-54
2022/08/01 06:41:24;;;;;;;5.50;5.00;;;;;;;22.55;68.41;100403.25;4998023;28;103618;-54
2022/08/01 06:43:51;;;;;;;5.30;4.80;;;;;;;22.55;68.51;100403.25;4994655;28;102016;-53
2022/08/01 06:46:17;;;;;;;5.70;5.10;;;;;;;22.55;68.66;100391.38;4997665;28;102849;-54
2022/08/01 06:48:44;;;;;;;5.03;4.53;;;;;;;22.55;68.47;100385.81;4989750;28;104084;-54
2022/08/01 06:51:15;;;;;;;5.65;5.15;;;;;;;22.56;68.58;100381.88;4989073;28;102207;-54
2022/08/01 06:53:41;;;;;;;5.50;4.82;;;;;;;22.55;68.50;100369.19;4994826;28;102342;-54
2022/08/01 06:56:11;;;;;;;5.13;4.55;;;;;;;22.56;68.50;100376.34;4995088;28;102254;-54
2022/08/01 06:58:38;;;;;;;7.53;5.10;;;;;;;22.58;68.25;100385.09;4996458;28;103902;-54
2022/08/01 07:01:08;;;;;;;5.80;5.30;;;;;;;22.59;68.21;100375.63;4996984;28;102455;-54
2022/08/01 07:03:35;;;;;;;5.93;4.90;;;;;;;22.59;68.42;100358.97;4995797;28;104539;-53
2022/08/01 07:06:02;;;;;;;8.20;5.70;;;;;;;22.59;68.35;100358.97;4999641;28;102159;-54
2022/08/01 07:08:28;;;;;;;6.53;5.70;;;;;;;22.61;68.37;100367.75;5013146;28;103934;-53
2022/08/01 07:10:58;;;;;;;6.40;5.40;;;;;;;22.61;68.40;100356.66;4995383;28;102061;-53
2022/08/01 07:13:25;;;;;;;6.45;5.25;;;;;;;22.61;68.23;100350.28;4995782;28;102124;-54
2022/08/01 07:15:54;;;;;;;5.85;5.25;;;;;;;22.63;68.36;100351.53;4985967;28;101980;-54
2022/08/01 07:18:20;;;;;;;6.45;5.78;;;;;;;22.66;68.02;100364.69;4987479;28;103890;-54
2022/08/01 07:20:47;;;;;;;6.70;5.70;;;;;;;22.68;68.34;100362.34;4997904;28;102288;-54
2022/08/01 07:23:14;;;;;;;6.35;5.18;;;;;;;22.68;68.52;100351.25;4996490;28;102023;-54
2022/08/01 07:25:40;;;;;;;6.13;5.38;;;;;;;22.69;68.47;100349.28;4997208;28;102521;-54
2022/08/01 07:28:07;;;;;;;6.25;5.65;;;;;;;22.69;68.17;100349.28;4988245;28;104159;-54
2022/08/01 07:30:34;;;;;;;6.03;5.18;;;;;;;22.71;68.46;100349.72;4992886;28;102341;-54
2022/08/01 07:33:02;;;;;;;6.03;5.35;;;;;;;22.72;68.02;100343.00;4992983;28;102202;-54
2022/08/01 07:35:29;;;;;;;6.50;5.73;;;;;;;22.73;68.39;100341.84;4986153;28;102638;-54
2022/08/01 07:37:55;;;;;;;6.28;5.60;;;;;;;22.75;68.07;100334.75;4995449;28;103936;-54
2022/08/01 07:40:22;;;;;;;7.15;6.05;;;;;;;22.81;67.60;100337.25;4982875;28;102327;-54
2022/08/01 07:42:49;;;;;;;5.78;5.20;;;;;;;22.84;67.82;100347.63;4994519;28;102272;-54
2022/08/01 07:45:16;;;;;;;5.70;5.13;;;;;;;22.86;67.42;100348.84;4992816;28;102186;-54
2022/08/01 07:47:42;;;;;;;5.82;5.03;;;;;;;22.89;67.73;100347.34;4994956;28;104137;-54
2022/08/01 07:50:12;;;;;;;7.00;5.22;;;;;;;22.94;67.67;100349.88;4994859;28;103474;-54
2022/08/01 07:52:38;;;;;;;7.35;5.60;;;;;;;22.96;67.65;100350.28;4996348;28;102218;-54
2022/08/01 07:55:07;;;;;;;5.25;4.75;;;;;;;22.99;66.80;100344.03;4996830;28;102550;-54
2022/08/01 07:57:33;;;;;;;5.88;5.30;;;;;;;23.01;66.62;100348.03;4986238;28;104008;-53
2022/08/01 08:00:00;;;;;;;6.45;5.03;;;;;;;23.03;66.48;100339.34;4995021;28;102312;-53
2022/08/01 08:02:27;;;;;;;6.50;5.10;;;;;;;23.03;67.29;100328.25;4985759;28;102543;-54
2022/08/01 08:04:53;;;;;;;5.60;5.10;;;;;;;23.04;66.97;100332.63;4991914;28;102515;-54
2022/08/01 08:07:21;;;;;;;7.05;4.90;;;;;;;23.04;66.69;100327.06;4995779;28;104528;-54
2022/08/01 08:09:48;;;;;;;6.32;5.25;;;;;;;23.03;66.92;100339.34;4990316;28;105078;-53
2022/08/01 08:12:14;;;;;;;5.22;4.72;;;;;;;23.03;66.78;100337.38;4986499;28;102432;-54
2022/08/01 08:14:41;;;;;;;5.13;4.63;;;;;;;23.04;66.85;100340.94;4991491;28;102172;-54
2022/08/01 08:17:07;;;;;;;5.82;5.22;;;;;;;23.04;67.13;100340.94;4984377;28;103923;-54
2022/08/01 08:19:36;;;;;;;5.05;4.47;;;;;;;23.06;66.67;100333.06;4985987;28;102740;-54
2022/08/01 08:22:03;;;;;;;5.70;5.03;;;;;;;23.06;66.48;100335.84;4990880;28;102182;-54
2022/08/01 08:24:31;;;;;;;6.10;5.35;;;;;;;23.09;66.50;100339.88;4986555;28;102643;-53
2022/08/01 08:26:58;;;;;;;5.40;4.90;;;;;;;23.10;66.03;100333.94;4989674;28;103876;-53
2022/08/01 08:29:26;;;;;;;6.15;5.55;;;;;;;23.13;66.19;100333.22;4990862;28;102655;-54
2022/08/01 08:31:53;;;;;;;5.75;5.10;;;;;;;23.13;67.32;100337.97;4993920;28;101984;-54
2022/08/01 08:34:19;;;;;;;5.47;4.97;;;;;;;23.11;67.09;100332.75;4995374;28;102298;-54
2022/08/01 08:36:46;;;;;;;4.95;4.50;;;;;;;23.10;67.09;100333.94;4992583;28;103967;-54
2022/08/01 08:39:12;;;;;;;4.90;4.50;;;;;;;23.07;67.33;100329.13;4992662;28;102454;-54
2022/08/01 08:41:40;;;;;;;6.88;4.82;;;;;;;23.06;67.52;100327.53;4988693;28;102354;-53
2022/08/01 08:44:08;;;;;;;4.57;4.20;;;;;;;23.04;67.20;100329.84;4993491;28;102671;-54
2022/08/01 08:46:42;;;;;;;6.50;4.82;;;;;;;23.03;67.57;100336.56;4986802;28;104226;-54
2022/08/01 08:49:09;;;;;;;4.55;4.15;;;;;;;23.00;67.49;100340.06;4991126;28;102428;-54
2022/08/01 08:51:39;;;;;;;5.30;4.90;;;;;;;23.00;67.33;100340.06;4988836;28;102275;-54
2022/08/01 08:54:07;;;;;;;7.38;4.90;;;;;;;22.97;67.80;100316.66;4993782;28;102127;-54
2022/08/01 08:56:35;;;;;;;5.53;4.75;;;;;;;22.98;68.14;100325.78;4992685;28;103554;-54
2022/08/01 08:59:04;;;;;;;5.32;4.45;;;;;;;22.96;67.62;100328.09;4994083;28;102489;-53
2022/08/01 09:01:32;;;;;;;4.90;4.50;;;;;;;22.95;67.54;100330.06;4992134;28;102063;-54
2022/08/01 09:03:59;;;;;;;5.10;4.60;;;;;;;22.97;66.96;100329.69;4989030;28;102401;-53
2022/08/01 09:06:25;;;;;;;5.53;5.03;;;;;;;22.95;67.47;100329.28;4991060;28;103974;-54
2022/08/01 09:08:52;;;;;;;5.15;4.72;;;;;;;22.94;67.52;100336.81;4992408;28;104321;-54
2022/08/01 09:11:19;;;;;;;6.00;5.38;;;;;;;22.94;67.91;100330.44;4994429;28;102263;-54
2022/08/01 09:14:03;;;;;;;6.35;5.30;;;;;;;22.93;67.80;100318.53;4995325;28;102131;-54
2022/08/01 09:16:30;;;;;;;5.32;4.78;;;;;;;22.93;67.74;100324.06;4986682;28;104245;-54
2022/08/01 09:19:07;;;;;;;5.00;4.60;;;;;;;22.92;67.96;100327.22;4986858;28;102153;-54
2022/08/01 09:21:34;;;;;;;5.43;4.88;;;;;;;22.92;67.89;100327.22;4993571;28;102050;-53
2022/08/01 09:24:05;;;;;;;5.90;4.70;;;;;;;22.92;67.91;100321.66;4989753;28;102481;-54
2022/08/01 09:26:34;;;;;;;5.05;4.65;;;;;;;22.90;67.76;100323.97;4995170;28;103957;-54
2022/08/01 09:29:05;;;;;;;5.53;5.03;;;;;;;22.89;68.04;100322.38;4999517;28;102020;-54
2022/08/01 09:31:41;;;;;;;5.43;4.82;;;;;;;22.88;67.71;100321.56;4991298;28;102111;-54
2022/08/01 09:34:09;;;;;;;5.63;4.88;;;;;;;22.89;67.94;100316.81;4991681;28;102369;-54
2022/08/01 09:36:56;;;;;;;5.07;4.57;;;;;;;22.89;68.11;100333.47;4996788;28;103950;-54
2022/08/01 09:39:26;;;;;;;5.20;4.80;;;;;;;22.88;68.07;100340.19;4983961;28;102266;-53
2022/08/01 09:41:52;;;;;;;5.28;4.78;;;;;;;22.87;68.05;100341.38;4979660;28;102231;-53
2022/08/01 09:44:37;;;;;;;5.03;4.60;;;;;;;22.87;68.14;100342.16;4997743;28;102243;-54
2022/08/01 09:47:04;;;;;;;5.13;4.63;;;;;;;22.86;68.16;100343.31;4996559;28;107973;-54
2022/08/01 09:49:33;;;;;;;4.90;4.35;;;;;;;22.85;68.08;100344.50;4989376;28;101890;-54
2022/08/01 09:52:10;;;;;;;4.70;4.18;;;;;;;22.85;67.99;100347.25;4983486;28;101921;-53
2022/08/01 09:54:37;;;;;;;4.85;4.45;;;;;;;22.85;68.18;100350.03;5000364;28;102510;-54
2022/08/01 09:57:08;;;;;;;5.35;4.85;;;;;;;22.85;68.12;100344.50;4998476;28;103839;-54
2022/08/01 09:59:40;;;;;;;5.00;4.60;;;;;;;22.84;68.17;100347.63;4997884;28;102393;-54
2022/08/01 10:02:07;;;;;;;5.05;4.60;;;;;;;22.84;68.25;100353.19;4995254;28;102469;-54
2022/08/01 10:04:34;;;;;;;5.38;4.88;;;;;;;22.83;68.29;100346.84;4983462;28;102541;-55
2022/08/01 10:07:05;;;;;;;5.25;4.75;;;;;;;22.83;68.33;100346.00;4990720;28;103501;-58
2022/08/01 10:09:33;;;;;;;5.20;4.38;;;;;;;22.82;68.25;100361.84;4988192;28;102197;-58
2022/08/01 10:12:01;;;;;;;5.00;4.43;;;;;;;22.83;68.16;100366.25;4988329;28;102630;-58
2022/08/01 10:14:29;;;;;;;4.57;4.18;;;;;;;22.83;67.88;100366.25;4988304;28;102239;-58
2022/08/01 10:16:58;;;;;;;4.93;4.50;;;;;;;22.85;68.17;100365.88;4984169;28;103925;-58
2022/08/01 10:19:27;;;;;;;4.90;4.50;;;;;;;22.86;67.88;100373.03;4992491;28;102752;-59
2022/08/01 10:21:56;;;;;;;5.13;4.63;;;;;;;22.85;68.03;100372.22;4988316;28;102256;-58
2022/08/01 10:24:24;;;;;;;5.25;4.75;;;;;;;22.86;67.54;100367.47;4984473;28;102272;-58
2022/08/01 10:26:55;;;;;;;5.00;4.55;;;;;;;22.86;67.89;100367.47;4989269;28;103821;-58
2022/08/01 10:29:22;;;;;;;5.35;4.38;;;;;;;22.85;67.84;100361.13;4985682;28;103510;-58
2022/08/01 10:31:50;;;;;;;4.90;4.50;;;;;;;22.86;67.89;100359.16;4991987;28;102462;-58
2022/08/01 10:34:20;;;;;;;5.17;4.60;;;;;;;22.89;67.07;100361.22;4985974;28;103678;-58
2022/08/01 10:36:47;;;;;;;5.00;4.50;;;;;;;22.91;66.88;100364.44;4989898;28;103951;-58
2022/08/01 10:39:14;;;;;;;5.22;4.72;;;;;;;22.92;66.61;100363.28;4994065;28;102428;-58
2022/08/01 10:41:41;;;;;;;4.85;4.18;;;;;;;22.91;67.17;100358.88;4988092;28;102531;-58
2022/08/01 10:44:08;;;;;;;4.20;3.90;;;;;;;22.90;66.77;100355.31;4990664;28;102497;-58
2022/08/01 10:46:38;;;;;;;5.40;4.50;;;;;;;22.91;67.23;100354.13;4989569;28;103802;-59
2022/08/01 10:49:08;;;;;;;4.97;4.57;;;;;;;22.91;67.30;100348.59;4984609;28;102496;-58
2022/08/01 10:51:38;;;;;;;4.70;4.30;;;;;;;22.90;67.44;100348.94;4986161;28;102705;-58
2022/08/01 10:54:07;;;;;;;4.97;4.55;;;;;;;22.88;67.44;100342.97;4991362;28;102720;-59
2022/08/01 10:56:39;;;;;;;;;;;;;;;22.87;67.72;100336.63;4987387;28;104363;-58
2022/08/01 10:59:05;;;;;;;4.93;4.22;;;;;;;22.88;67.22;100340.19;4993861;28;102518;-54
2022/08/01 11:01:32;;;;;;;4.88;4.47;;;;;;;22.88;67.01;100337.41;4996228;28;102971;-54
2022/08/01 11:04:05;;;;;;;5.13;4.30;;;;;;;22.90;66.39;100335.88;4997750;28;102581;-54
2022/08/01 11:06:41;;;;;;;5.22;4.72;;;;;;;22.93;66.04;100334.38;4996004;28;106855;-54
2022/08/01 11:09:24;;;;;;;5.00;4.55;;;;;;;22.95;66.00;100343.16;4987207;28;102044;-54
2022/08/01 11:12:01;;;;;;;4.80;4.38;;;;;;;22.94;66.93;100344.31;4984677;28;102528;-53
2022/08/01 11:14:29;;;;;;;4.47;4.07;;;;;;;22.95;66.99;100348.69;4996113;28;102565;-54
2022/08/01 11:16:56;;;;;;;6.35;4.43;;;;;;;22.95;66.50;100345.91;4989020;28;104309;-54
2022/08/01 11:19:23;;;;;;;4.97;4.57;;;;;;;22.93;66.77;100351.81;4990172;28;102662;-54
2022/08/01 11:22:02;;;;;;;5.10;4.70;;;;;;;22.92;66.43;100343.88;4992779;28;102435;-54
2022/08/01 11:24:56;;;;;;;5.32;4.82;;;;;;;22.92;67.16;100349.41;4995192;28;102165;-54
2022/08/01 11:27:25;;;;;;;5.07;4.45;;;;;;;22.91;67.09;100343.03;4990972;28;103872;-53